createdAt,value
2022-10-06T00:00:30.871Z,0.00
2022-10-06T00:01:30.920Z,0.00
2022-10-06T00:02:30.894Z,0.00
2022-10-06T00:03:30.827Z,0.00
2022-10-06T00:04:30.812Z,0.00
2022-10-06T00:05:30.818Z,0.00
2022-10-06T00:06:30.788Z,0.00
2022-10-06T00:07:30.803Z,0.00
2022-10-06T00:08:31.101Z,0.00
2022-10-06T00:09:30.767Z,0.00
2022-10-06T00:10:30.771Z,0.00
2022-10-06T00:11:30.739Z,0.00
2022-10-06T00:12:30.724Z,0.00
2022-10-06T00:13:30.719Z,0.00
2022-10-06T00:14:30.695Z,0.00
2022-10-06T00:15:30.823Z,0.00
2022-10-06T00:16:30.681Z,0.00
2022-10-06T00:17:30.676Z,0.00
2022-10-06T00:18:31.226Z,0.00
2022-10-06T00:19:30.654Z,0.00
2022-10-06T00:20:30.650Z,0.00
2022-10-06T00:21:30.615Z,0.00
2022-10-06T00:22:30.627Z,0.00
2022-10-06T00:23:30.604Z,0.00
2022-10-06T00:24:30.586Z,0.00
2022-10-06T00:25:30.606Z,0.00
2022-10-06T00:26:30.590Z,0.00
2022-10-06T00:27:30.558Z,0.00
2022-10-06T00:28:30.989Z,0.00
2022-10-06T00:29:30.538Z,0.00
2022-10-06T00:30:30.526Z,0.00
2022-10-06T00:31:30.601Z,0.00
2022-10-06T00:32:30.520Z,0.00
2022-10-06T00:33:30.489Z,0.00
2022-10-06T00:34:30.484Z,0.00
2022-10-06T00:35:30.472Z,0.00
2022-10-06T00:36:30.474Z,0.00
2022-10-06T00:37:30.443Z,0.00
2022-10-06T00:38:30.806Z,0.00
2022-10-06T00:39:30.444Z,0.00
2022-10-06T00:40:30.408Z,0.00
2022-10-06T00:41:30.403Z,0.00
2022-10-06T00:42:30.403Z,0.00
2022-10-06T00:43:30.381Z,0.00
2022-10-06T00:44:30.392Z,0.00
2022-10-06T00:45:30.390Z,0.00
2022-10-06T00:46:30.410Z,0.00
2022-10-06T00:47:30.336Z,0.00
2022-10-06T00:48:30.998Z,0.00
2022-10-06T00:49:30.336Z,0.00
2022-10-06T00:50:30.319Z,0.00
2022-10-06T00:51:30.298Z,0.00
2022-10-06T00:52:30.294Z,0.00
2022-10-06T00:53:30.271Z,0.00
2022-10-06T00:54:30.275Z,0.00
2022-10-06T00:55:30.249Z,0.00
2022-10-06T00:56:30.252Z,0.00
2022-10-06T00:57:30.249Z,0.00
2022-10-06T00:58:37.926Z,0.00
2022-10-06T00:59:37.861Z,0.00
2022-10-06T01:00:30.290Z,0.00
2022-10-06T01:01:30.250Z,0.00
2022-10-06T01:02:30.345Z,0.00
2022-10-06T01:03:30.231Z,0.00
2022-10-06T01:04:30.263Z,0.00
2022-10-06T01:05:30.166Z,0.00
2022-10-06T01:06:30.148Z,0.00
2022-10-06T01:07:30.164Z,0.00
2022-10-06T01:08:30.665Z,0.00
2022-10-06T01:09:30.108Z,0.00
2022-10-06T01:10:30.106Z,0.00
2022-10-06T01:11:30.097Z,0.00
2022-10-06T01:12:30.072Z,0.00
2022-10-06T01:13:30.077Z,0.00
2022-10-06T01:14:30.074Z,0.00
2022-10-06T01:15:30.137Z,0.00
2022-10-06T01:16:30.029Z,0.00
2022-10-06T01:17:30.031Z,0.00
2022-10-06T01:18:30.253Z,0.00
2022-10-06T01:19:30.001Z,0.00
2022-10-06T01:20:30.001Z,0.00
2022-10-06T01:21:30.013Z,0.00
2022-10-06T01:22:29.972Z,0.00
2022-10-06T01:23:29.966Z,0.00
2022-10-06T01:24:37.584Z,0.00
2022-10-06T01:25:37.562Z,0.00
2022-10-06T01:26:37.597Z,0.00
2022-10-06T01:27:37.556Z,0.00
2022-10-06T01:28:30.245Z,0.00
2022-10-06T01:29:29.992Z,0.00
2022-10-06T01:30:29.931Z,0.00
2022-10-06T01:31:30.048Z,0.00
2022-10-06T01:32:29.878Z,0.00
2022-10-06T01:33:29.869Z,0.00
2022-10-06T01:34:29.851Z,0.00
2022-10-06T01:35:29.828Z,0.00
2022-10-06T01:36:29.852Z,0.00
2022-10-06T01:37:29.825Z,0.00
2022-10-06T01:38:30.174Z,0.00
2022-10-06T01:39:29.797Z,0.00
2022-10-06T01:40:29.782Z,0.00
2022-10-06T01:41:29.765Z,0.00
2022-10-06T01:42:29.787Z,0.00
2022-10-06T01:43:29.744Z,0.00
2022-10-06T01:44:29.758Z,0.00
2022-10-06T01:45:29.727Z,0.00
2022-10-06T01:46:29.841Z,0.00
2022-10-06T01:47:29.712Z,0.00
2022-10-06T01:48:29.981Z,0.00
2022-10-06T01:49:29.682Z,0.00
2022-10-06T01:50:29.678Z,0.00
2022-10-06T01:51:29.668Z,0.00
2022-10-06T01:52:29.655Z,0.00
2022-10-06T01:53:38.611Z,0.00
2022-10-06T01:54:37.347Z,0.00
2022-10-06T01:55:37.255Z,0.00
2022-10-06T01:56:38.233Z,0.00
2022-10-06T01:57:29.654Z,0.00
2022-10-06T01:58:29.924Z,0.00
2022-10-06T01:59:29.708Z,0.00
2022-10-06T02:00:29.600Z,0.00
2022-10-06T02:01:29.593Z,0.00
2022-10-06T02:02:29.562Z,0.00
2022-10-06T02:03:29.552Z,0.00
2022-10-06T02:04:29.544Z,0.00
2022-10-06T02:05:29.510Z,0.00
2022-10-06T02:06:29.592Z,0.00
2022-10-06T02:07:29.496Z,0.00
2022-10-06T02:08:29.919Z,0.00
2022-10-06T02:09:29.490Z,0.00
2022-10-06T02:10:29.471Z,0.00
2022-10-06T02:11:29.478Z,0.00
2022-10-06T02:12:29.439Z,0.00
2022-10-06T02:13:29.433Z,0.00
2022-10-06T02:14:29.423Z,0.00
2022-10-06T02:15:29.423Z,0.00
2022-10-06T02:16:29.505Z,0.00
2022-10-06T02:17:29.394Z,0.00
2022-10-06T02:18:29.654Z,0.00
2022-10-06T02:19:29.367Z,0.00
2022-10-06T02:20:29.360Z,0.00
2022-10-06T02:21:29.357Z,0.00
2022-10-06T02:22:29.339Z,0.00
2022-10-06T02:23:29.351Z,0.00
2022-10-06T02:24:29.310Z,0.00
2022-10-06T02:25:29.312Z,0.00
2022-10-06T02:26:29.289Z,0.00
2022-10-06T02:27:29.281Z,0.00
2022-10-06T02:28:29.831Z,0.00
2022-10-06T02:29:29.281Z,0.00
2022-10-06T02:30:29.265Z,0.00
2022-10-06T02:31:29.305Z,0.00
2022-10-06T02:32:29.242Z,0.00
2022-10-06T02:33:29.236Z,0.00
2022-10-06T02:34:29.222Z,0.00
2022-10-06T02:35:29.214Z,0.00
2022-10-06T02:36:29.191Z,0.00
2022-10-06T02:37:39.211Z,0.00
2022-10-06T02:38:38.231Z,0.00
2022-10-06T02:39:29.192Z,0.00
2022-10-06T02:40:29.193Z,0.00
2022-10-06T02:41:29.182Z,0.00
2022-10-06T02:42:29.168Z,0.00
2022-10-06T02:43:29.221Z,0.00
2022-10-06T02:44:29.148Z,0.00
2022-10-06T02:45:29.209Z,0.00
2022-10-06T02:46:29.156Z,0.00
2022-10-06T02:47:29.080Z,0.00
2022-10-06T02:48:29.454Z,0.00
2022-10-06T02:49:29.066Z,0.00
2022-10-06T02:50:29.065Z,0.00
2022-10-06T02:51:29.029Z,0.00
2022-10-06T02:52:29.023Z,0.00
2022-10-06T02:53:29.013Z,0.00
2022-10-06T02:54:29.033Z,0.00
2022-10-06T02:55:29.008Z,0.00
2022-10-06T02:56:28.984Z,0.00
2022-10-06T02:57:28.971Z,0.00
2022-10-06T02:58:29.379Z,0.00
2022-10-06T02:59:28.953Z,0.00
2022-10-06T03:00:28.944Z,0.00
2022-10-06T03:01:28.973Z,0.00
2022-10-06T03:02:29.033Z,0.00
2022-10-06T03:03:28.906Z,0.00
2022-10-06T03:04:28.899Z,0.00
2022-10-06T03:05:28.887Z,0.00
2022-10-06T03:06:28.916Z,0.00
2022-10-06T03:07:28.874Z,0.00
2022-10-06T03:08:29.211Z,0.00
2022-10-06T03:09:28.848Z,0.00
2022-10-06T03:10:28.831Z,0.00
2022-10-06T03:11:28.829Z,0.00
2022-10-06T03:12:28.821Z,0.00
2022-10-06T03:13:28.802Z,0.00
2022-10-06T03:14:28.797Z,0.00
2022-10-06T03:15:28.783Z,0.00
2022-10-06T03:16:28.810Z,0.00
2022-10-06T03:17:28.774Z,0.00
2022-10-06T03:18:29.045Z,0.00
2022-10-06T03:19:28.731Z,0.00
2022-10-06T03:20:28.743Z,0.00
2022-10-06T03:21:28.715Z,0.00
2022-10-06T03:22:28.741Z,0.00
2022-10-06T03:23:28.691Z,0.00
2022-10-06T03:24:28.688Z,0.00
2022-10-06T03:25:28.680Z,0.00
2022-10-06T03:26:28.674Z,0.00
2022-10-06T03:27:28.656Z,0.00
2022-10-06T03:28:29.083Z,0.00
2022-10-06T03:29:28.631Z,0.00
2022-10-06T03:30:28.621Z,0.00
2022-10-06T03:31:28.662Z,0.00
2022-10-06T03:32:28.610Z,0.00
2022-10-06T03:33:28.591Z,0.00
2022-10-06T03:34:28.579Z,0.00
2022-10-06T03:35:28.568Z,0.00
2022-10-06T03:36:28.559Z,0.00
2022-10-06T03:37:28.567Z,0.00
2022-10-06T03:38:28.957Z,0.00
2022-10-06T03:39:28.530Z,0.00
2022-10-06T03:40:28.548Z,0.00
2022-10-06T03:41:28.497Z,0.00
2022-10-06T03:42:28.490Z,0.00
2022-10-06T03:43:28.485Z,0.00
2022-10-06T03:44:39.272Z,0.00
2022-10-06T03:45:37.110Z,0.00
2022-10-06T03:46:37.414Z,0.00
2022-10-06T03:47:28.526Z,0.00
2022-10-06T03:48:28.825Z,0.00
2022-10-06T03:49:28.495Z,0.00
2022-10-06T03:50:28.475Z,0.00
2022-10-06T03:51:28.395Z,0.00
2022-10-06T03:52:28.380Z,0.00
2022-10-06T03:53:28.385Z,0.00
2022-10-06T03:54:28.375Z,0.00
2022-10-06T03:55:28.376Z,0.00
2022-10-06T03:56:28.385Z,0.00
2022-10-06T03:57:28.330Z,0.00
2022-10-06T03:58:28.607Z,0.00
2022-10-06T03:59:28.316Z,0.00
2022-10-06T04:00:28.328Z,0.00
2022-10-06T04:01:28.369Z,0.00
2022-10-06T04:02:28.374Z,0.00
2022-10-06T04:03:28.266Z,0.00
2022-10-06T04:04:28.260Z,0.00
2022-10-06T04:05:28.246Z,0.00
2022-10-06T04:06:28.253Z,0.00
2022-10-06T04:07:28.227Z,0.00
2022-10-06T04:08:28.475Z,0.00
2022-10-06T04:09:28.208Z,0.00
2022-10-06T04:10:28.339Z,0.00
2022-10-06T04:11:28.200Z,0.00
2022-10-06T04:12:28.187Z,0.00
2022-10-06T04:13:28.170Z,0.00
2022-10-06T04:14:28.160Z,0.00
2022-10-06T04:15:28.143Z,0.00
2022-10-06T04:16:28.190Z,0.00
2022-10-06T04:17:28.122Z,0.00
2022-10-06T04:18:28.653Z,0.00
2022-10-06T04:19:28.095Z,0.00
2022-10-06T04:20:28.103Z,0.00
2022-10-06T04:21:28.081Z,0.00
2022-10-06T04:22:28.083Z,0.00
2022-10-06T04:23:28.062Z,0.00
2022-10-06T04:24:28.048Z,0.00
2022-10-06T04:25:28.043Z,0.00
2022-10-06T04:26:28.050Z,0.00
2022-10-06T04:27:28.024Z,0.00
2022-10-06T04:28:28.470Z,0.00
2022-10-06T04:29:28.004Z,0.00
2022-10-06T04:30:27.988Z,0.00
2022-10-06T04:31:28.089Z,0.00
2022-10-06T04:32:27.993Z,0.00
2022-10-06T04:33:27.963Z,0.00
2022-10-06T04:34:27.944Z,0.00
2022-10-06T04:35:27.939Z,0.00
2022-10-06T04:36:27.919Z,0.00
2022-10-06T04:37:27.915Z,0.00
2022-10-06T04:38:28.313Z,0.00
2022-10-06T04:39:27.899Z,0.00
2022-10-06T04:40:27.880Z,0.00
2022-10-06T04:41:27.881Z,0.00
2022-10-06T04:42:31.326Z,0.00
2022-10-06T04:43:28.876Z,0.00
2022-10-06T04:44:27.846Z,0.00
2022-10-06T04:45:27.902Z,0.00
2022-10-06T04:46:42.608Z,0.00
2022-10-06T04:47:28.818Z,0.00
2022-10-06T04:48:28.239Z,0.00
2022-10-06T04:49:27.793Z,0.00
2022-10-06T04:50:27.791Z,0.00
2022-10-06T04:51:27.807Z,0.00
2022-10-06T04:52:27.751Z,0.00
2022-10-06T04:53:27.758Z,0.00
2022-10-06T04:54:32.760Z,0.00
2022-10-06T04:55:28.721Z,0.00
2022-10-06T04:56:27.715Z,0.00
2022-10-06T04:57:27.710Z,0.00
2022-10-06T04:58:28.060Z,0.00
2022-10-06T04:59:27.676Z,0.00
2022-10-06T05:00:27.692Z,0.00
2022-10-06T05:01:27.725Z,0.00
2022-10-06T05:02:27.680Z,0.00
2022-10-06T05:03:27.653Z,0.00
2022-10-06T05:04:27.632Z,0.00
2022-10-06T05:05:27.619Z,0.00
2022-10-06T05:06:27.619Z,0.00
2022-10-06T05:07:27.607Z,0.00
2022-10-06T05:08:28.095Z,0.00
2022-10-06T05:09:27.594Z,0.00
2022-10-06T05:10:27.593Z,0.00
2022-10-06T05:11:27.551Z,0.00
2022-10-06T05:12:27.543Z,0.00
2022-10-06T05:13:27.533Z,0.00
2022-10-06T05:14:27.543Z,0.00
2022-10-06T05:15:27.548Z,5.62
2022-10-06T05:16:27.789Z,5.62
2022-10-06T05:17:27.686Z,5.62
2022-10-06T05:18:28.523Z,5.62
2022-10-06T05:19:27.576Z,5.62
2022-10-06T05:20:27.469Z,11.25
2022-10-06T05:21:36.464Z,11.25
2022-10-06T05:22:27.519Z,11.25
2022-10-06T05:23:27.489Z,11.25
2022-10-06T05:24:36.242Z,16.88
2022-10-06T05:25:27.543Z,16.88
2022-10-06T05:26:27.492Z,16.88
2022-10-06T05:27:27.443Z,16.88
2022-10-06T05:28:28.424Z,22.50
2022-10-06T05:29:27.398Z,22.50
2022-10-06T05:30:27.372Z,22.50
2022-10-06T05:31:27.467Z,22.50
2022-10-06T05:32:27.363Z,28.12
2022-10-06T05:33:27.382Z,28.12
2022-10-06T05:34:27.347Z,28.12
2022-10-06T05:35:27.320Z,28.12
2022-10-06T05:36:27.296Z,33.75
2022-10-06T05:37:27.279Z,33.75
2022-10-06T05:38:27.733Z,33.75
2022-10-06T05:39:27.269Z,33.75
2022-10-06T05:40:27.254Z,39.38
2022-10-06T05:41:27.244Z,39.38
2022-10-06T05:42:29.679Z,39.38
2022-10-06T05:43:27.217Z,39.38
2022-10-06T05:44:27.225Z,45.00
2022-10-06T05:45:27.214Z,45.00
2022-10-06T05:46:28.249Z,45.00
2022-10-06T05:47:27.196Z,45.00
2022-10-06T05:48:27.642Z,45.00
2022-10-06T05:49:27.204Z,50.62
2022-10-06T05:50:27.197Z,50.62
2022-10-06T05:51:30.714Z,50.62
2022-10-06T05:52:27.190Z,50.62
2022-10-06T05:53:27.122Z,56.25
2022-10-06T05:54:36.969Z,56.25
2022-10-06T05:56:39.223Z,61.88
2022-10-06T05:58:49.870Z,61.88
2022-10-06T05:59:57.631Z,67.50
2022-10-06T06:00:58.653Z,67.50
2022-10-06T06:03:00.627Z,73.12
2022-10-06T06:04:00.478Z,78.75
2022-10-06T06:05:12.015Z,78.75
2022-10-06T06:06:10.121Z,78.75
2022-10-06T06:07:00.481Z,78.75
2022-10-06T06:08:12.152Z,84.38
2022-10-06T06:09:09.025Z,84.38
2022-10-06T06:10:09.469Z,84.38
2022-10-06T06:12:11.489Z,90.00
2022-10-06T06:14:29.835Z,90.00
2022-10-06T06:15:39.598Z,90.00
2022-10-06T06:17:52.628Z,95.62
2022-10-06T06:19:00.211Z,95.62
2022-10-06T06:20:01.159Z,101.25
2022-10-06T06:21:01.255Z,101.25
2022-10-06T06:22:02.385Z,101.25
2022-10-06T06:23:01.330Z,106.88
2022-10-06T06:25:12.499Z,118.12
2022-10-06T06:26:11.815Z,118.12
2022-10-06T06:27:11.983Z,118.12
2022-10-06T06:28:11.866Z,106.88
2022-10-06T06:29:22.353Z,112.50
2022-10-06T06:30:11.832Z,118.12
2022-10-06T06:31:14.099Z,129.38
2022-10-06T06:32:11.830Z,140.62
2022-10-06T06:34:22.628Z,174.38
2022-10-06T06:35:22.511Z,146.25
2022-10-06T06:36:22.771Z,123.75
2022-10-06T06:37:22.486Z,112.50
2022-10-06T06:38:32.806Z,106.88
2022-10-06T06:39:34.183Z,106.88
2022-10-06T06:40:22.610Z,118.12
2022-10-06T06:41:22.675Z,118.12
2022-10-06T06:42:22.641Z,118.12
2022-10-06T06:43:22.624Z,118.12
2022-10-06T06:44:22.404Z,118.12
2022-10-06T06:45:22.406Z,118.12
2022-10-06T06:46:22.493Z,123.75
2022-10-06T06:47:24.468Z,123.75
2022-10-06T06:48:22.404Z,123.75
2022-10-06T06:49:22.440Z,123.75
2022-10-06T06:50:22.461Z,123.75
2022-10-06T06:51:22.462Z,123.75
2022-10-06T06:52:22.326Z,123.75
2022-10-06T06:53:22.357Z,123.75
2022-10-06T06:54:22.315Z,123.75
2022-10-06T06:55:22.278Z,123.75
2022-10-06T06:56:22.328Z,123.75
2022-10-06T06:57:22.268Z,129.38
2022-10-06T06:58:22.386Z,129.38
2022-10-06T06:59:22.761Z,129.38
2022-10-06T07:00:22.233Z,129.38
2022-10-06T07:01:22.301Z,129.38
2022-10-06T07:02:22.242Z,129.38
2022-10-06T07:03:52.102Z,129.38
2022-10-06T07:04:23.271Z,129.38
2022-10-06T07:05:22.328Z,129.38
2022-10-06T07:06:27.107Z,129.38
2022-10-06T07:07:23.415Z,135.00
2022-10-06T07:08:22.315Z,140.62
2022-10-06T07:09:22.237Z,151.88
2022-10-06T07:10:32.959Z,151.88
2022-10-06T07:13:46.173Z,163.12
2022-10-06T07:14:45.593Z,180.00
2022-10-06T07:15:45.641Z,196.88
2022-10-06T07:16:45.524Z,191.25
2022-10-06T07:17:45.500Z,168.75
2022-10-06T07:18:45.463Z,168.75
2022-10-06T07:19:45.450Z,196.88
2022-10-06T07:20:45.490Z,225.00
2022-10-06T07:21:45.463Z,230.62
2022-10-06T07:22:45.418Z,241.88
2022-10-06T07:23:45.439Z,230.62
2022-10-06T07:24:45.414Z,202.50
2022-10-06T07:25:45.398Z,202.50
2022-10-06T07:26:45.393Z,258.75
2022-10-06T07:27:45.393Z,180.00
2022-10-06T07:28:45.379Z,191.25
2022-10-06T07:29:45.427Z,174.38
2022-10-06T07:30:45.350Z,202.50
2022-10-06T07:31:45.363Z,146.25
2022-10-06T07:32:45.327Z,129.38
2022-10-06T07:33:45.341Z,135.00
2022-10-06T07:34:45.343Z,140.62
2022-10-06T07:35:45.314Z,140.62
2022-10-06T07:36:53.144Z,135.00
2022-10-06T07:39:02.031Z,146.25
2022-10-06T07:40:02.062Z,146.25
2022-10-06T07:42:02.849Z,140.62
2022-10-06T07:43:01.834Z,140.62
2022-10-06T07:44:07.126Z,140.62
2022-10-06T07:45:02.897Z,140.62
2022-10-06T07:46:01.847Z,140.62
2022-10-06T07:47:01.788Z,140.62
2022-10-06T07:48:01.804Z,140.62
2022-10-06T07:49:01.759Z,135.00
2022-10-06T07:50:01.965Z,146.25
2022-10-06T07:51:01.810Z,146.25
2022-10-06T07:52:01.748Z,140.62
2022-10-06T07:53:01.740Z,146.25
2022-10-06T07:54:01.719Z,146.25
2022-10-06T07:55:01.704Z,140.62
2022-10-06T07:56:01.738Z,146.25
2022-10-06T07:57:01.687Z,140.62
2022-10-06T07:58:01.680Z,140.62
2022-10-06T07:59:01.657Z,140.62
2022-10-06T08:00:03.305Z,140.62
2022-10-06T08:01:01.652Z,140.62
2022-10-06T08:02:01.809Z,140.62
2022-10-06T08:03:01.675Z,146.25
2022-10-06T08:04:01.610Z,146.25
2022-10-06T08:05:01.666Z,146.25
2022-10-06T08:06:01.588Z,146.25
2022-10-06T08:07:01.614Z,146.25
2022-10-06T08:08:01.683Z,146.25
2022-10-06T08:09:01.561Z,146.25
2022-10-06T08:10:01.611Z,146.25
2022-10-06T08:11:02.086Z,146.25
2022-10-06T08:12:01.526Z,146.25
2022-10-06T08:13:01.537Z,146.25
2022-10-06T08:14:01.538Z,146.25
2022-10-06T08:15:04.541Z,146.25
2022-10-06T08:16:02.504Z,146.25
2022-10-06T08:17:01.482Z,146.25
2022-10-06T08:18:01.490Z,146.25
2022-10-06T08:19:01.456Z,151.88
2022-10-06T08:20:01.463Z,157.50
2022-10-06T08:21:01.531Z,157.50
2022-10-06T08:22:04.811Z,157.50
2022-10-06T08:23:01.406Z,151.88
2022-10-06T08:24:01.424Z,151.88
2022-10-06T08:25:10.729Z,151.88
2022-10-06T08:26:01.505Z,151.88
2022-10-06T08:27:01.369Z,163.12
2022-10-06T08:28:09.426Z,180.00
2022-10-06T08:29:01.367Z,191.25
2022-10-06T08:30:01.455Z,174.38
2022-10-06T08:31:01.463Z,174.38
2022-10-06T08:32:01.397Z,157.50
2022-10-06T08:33:01.295Z,174.38
2022-10-06T08:34:01.325Z,180.00
2022-10-06T08:35:01.296Z,191.25
2022-10-06T08:36:01.283Z,174.38
2022-10-06T08:37:19.255Z,174.38
2022-10-06T08:38:02.254Z,180.00
2022-10-06T08:39:01.347Z,185.62
2022-10-06T08:40:01.271Z,180.00
2022-10-06T08:41:01.215Z,196.88
2022-10-06T08:42:01.225Z,213.75
2022-10-06T08:43:01.222Z,196.88
2022-10-06T08:44:01.190Z,180.00
2022-10-06T08:45:01.178Z,196.88
2022-10-06T08:46:01.181Z,225.00
2022-10-06T08:47:01.150Z,236.25
2022-10-06T08:48:01.180Z,253.12
2022-10-06T08:49:01.132Z,225.00
2022-10-06T08:50:01.182Z,213.75
2022-10-06T08:51:01.105Z,202.50
2022-10-06T08:52:01.180Z,185.62
2022-10-06T08:53:01.103Z,196.88
2022-10-06T08:54:01.075Z,225.00
2022-10-06T08:55:01.087Z,230.62
2022-10-06T08:56:01.077Z,247.50
2022-10-06T08:57:01.046Z,292.50
2022-10-06T08:58:01.134Z,360.00
2022-10-06T08:59:01.036Z,382.50
2022-10-06T09:00:01.020Z,360.00
2022-10-06T09:01:01.090Z,343.12
2022-10-06T09:02:01.111Z,315.00
2022-10-06T09:03:00.986Z,292.50
2022-10-06T09:04:00.976Z,309.38
2022-10-06T09:05:01.011Z,320.62
2022-10-06T09:06:00.947Z,281.25
2022-10-06T09:07:01.014Z,309.38
2022-10-06T09:08:00.937Z,309.38
2022-10-06T09:09:00.917Z,286.88
2022-10-06T09:10:00.907Z,303.75
2022-10-06T09:11:00.922Z,292.50
2022-10-06T09:12:00.985Z,270.00
2022-10-06T09:13:00.886Z,264.38
2022-10-06T09:14:00.916Z,219.38
2022-10-06T09:15:00.854Z,208.12
2022-10-06T09:16:00.913Z,202.50
2022-10-06T09:17:09.490Z,185.62
2022-10-06T09:18:00.961Z,196.88
2022-10-06T09:19:08.686Z,180.00
2022-10-06T09:20:01.849Z,174.38
2022-10-06T09:21:00.901Z,174.38
2022-10-06T09:22:00.833Z,174.38
2022-10-06T09:23:00.769Z,168.75
2022-10-06T09:24:00.799Z,180.00
2022-10-06T09:25:00.768Z,168.75
2022-10-06T09:26:00.737Z,157.50
2022-10-06T09:27:00.725Z,168.75
2022-10-06T09:28:00.935Z,163.12
2022-10-06T09:29:00.747Z,146.25
2022-10-06T09:30:00.693Z,151.88
2022-10-06T09:31:00.754Z,185.62
2022-10-06T09:32:00.672Z,185.62
2022-10-06T09:33:00.688Z,213.75
2022-10-06T09:34:00.693Z,191.25
2022-10-06T09:35:00.707Z,151.88
2022-10-06T09:36:00.636Z,151.88
2022-10-06T09:37:02.025Z,163.12
2022-10-06T09:38:04.398Z,174.38
2022-10-06T09:39:01.607Z,185.62
2022-10-06T09:40:00.595Z,191.25
2022-10-06T09:41:00.591Z,185.62
2022-10-06T09:42:00.612Z,185.62
2022-10-06T09:43:00.572Z,174.38
2022-10-06T09:44:00.594Z,168.75
2022-10-06T09:45:00.593Z,151.88
2022-10-06T09:46:00.615Z,151.88
2022-10-06T09:47:00.520Z,174.38
2022-10-06T09:48:00.538Z,180.00
2022-10-06T09:49:00.507Z,208.12
2022-10-06T09:50:00.496Z,225.00
2022-10-06T09:51:00.485Z,213.75
2022-10-06T09:52:00.540Z,191.25
2022-10-06T09:53:00.488Z,180.00
2022-10-06T09:54:00.453Z,180.00
2022-10-06T09:55:00.429Z,168.75
2022-10-06T09:56:00.433Z,168.75
2022-10-06T09:57:00.414Z,163.12
2022-10-06T09:58:00.413Z,163.12
2022-10-06T09:59:00.443Z,163.12
2022-10-06T10:00:00.541Z,163.12
2022-10-06T10:01:00.548Z,163.12
2022-10-06T10:02:00.453Z,163.12
2022-10-06T10:03:00.401Z,163.12
2022-10-06T10:04:20.686Z,168.75
2022-10-06T10:05:01.352Z,174.38
2022-10-06T10:06:00.324Z,180.00
2022-10-06T10:07:00.376Z,185.62
2022-10-06T10:08:00.307Z,185.62
2022-10-06T10:09:00.297Z,185.62
2022-10-06T10:10:00.290Z,180.00
2022-10-06T10:11:00.279Z,168.75
2022-10-06T10:12:00.367Z,168.75
2022-10-06T10:13:00.278Z,146.25
2022-10-06T10:14:00.236Z,163.12
2022-10-06T10:15:00.242Z,146.25
2022-10-06T10:16:00.305Z,151.88
2022-10-06T10:17:00.238Z,168.75
2022-10-06T10:18:00.205Z,151.88
2022-10-06T10:19:00.198Z,157.50
2022-10-06T10:20:00.524Z,163.12
2022-10-06T10:21:00.179Z,168.75
2022-10-06T10:22:00.298Z,163.12
2022-10-06T10:23:00.179Z,168.75
2022-10-06T10:24:00.129Z,168.75
2022-10-06T10:25:00.173Z,168.75
2022-10-06T10:26:00.120Z,168.75
2022-10-06T10:27:00.110Z,168.75
2022-10-06T10:28:00.177Z,168.75
2022-10-06T10:29:00.105Z,168.75
2022-10-06T10:30:00.170Z,168.75
2022-10-06T10:31:00.134Z,168.75
2022-10-06T10:32:00.109Z,168.75
2022-10-06T10:33:00.052Z,174.38
2022-10-06T10:34:12.764Z,174.38
2022-10-06T10:35:07.773Z,180.00
2022-10-06T10:36:07.679Z,185.62
2022-10-06T10:37:00.139Z,191.25
2022-10-06T10:38:00.046Z,202.50
2022-10-06T10:39:00.059Z,219.38
2022-10-06T10:40:00.071Z,213.75
2022-10-06T10:40:59.984Z,202.50
2022-10-06T10:41:59.962Z,191.25
2022-10-06T10:42:59.944Z,196.88
2022-10-06T10:44:03.934Z,219.38
2022-10-06T10:45:00.201Z,202.50
2022-10-06T10:45:59.944Z,196.88
2022-10-06T10:46:59.939Z,202.50
2022-10-06T10:47:59.913Z,185.62
2022-10-06T10:48:59.882Z,185.62
2022-10-06T10:49:59.882Z,196.88
2022-10-06T10:50:59.876Z,213.75
2022-10-06T10:51:59.839Z,241.88
2022-10-06T10:52:59.880Z,236.25
2022-10-06T10:53:59.828Z,208.12
2022-10-06T10:55:00.119Z,191.25
2022-10-06T10:55:59.818Z,174.38
2022-10-06T10:57:07.488Z,174.38
2022-10-06T10:57:59.873Z,180.00
2022-10-06T10:58:59.862Z,191.25
2022-10-06T10:59:59.883Z,196.88
2022-10-06T11:00:59.986Z,185.62
2022-10-06T11:01:59.789Z,191.25
2022-10-06T11:02:59.767Z,174.38
2022-10-06T11:03:59.732Z,191.25
2022-10-06T11:05:00.008Z,191.25
2022-10-06T11:05:59.733Z,191.25
2022-10-06T11:06:59.737Z,185.62
2022-10-06T11:07:59.679Z,185.62
2022-10-06T11:08:59.682Z,185.62
2022-10-06T11:09:59.690Z,180.00
2022-10-06T11:10:59.645Z,185.62
2022-10-06T11:11:59.637Z,168.75
2022-10-06T11:12:59.640Z,191.25
2022-10-06T11:13:59.610Z,174.38
2022-10-06T11:15:00.266Z,185.62
2022-10-06T11:15:59.620Z,191.25
2022-10-06T11:16:59.578Z,163.12
2022-10-06T11:17:59.572Z,151.88
2022-10-06T11:18:59.573Z,174.38
2022-10-06T11:19:59.564Z,168.75
2022-10-06T11:20:59.541Z,151.88
2022-10-06T11:21:59.549Z,151.88
2022-10-06T11:22:59.514Z,168.75
2022-10-06T11:23:59.534Z,168.75
2022-10-06T11:24:59.850Z,168.75
2022-10-06T11:25:59.480Z,168.75
2022-10-06T11:26:59.466Z,168.75
2022-10-06T11:27:59.500Z,168.75
2022-10-06T11:28:59.443Z,174.38
2022-10-06T11:29:59.794Z,174.38
2022-10-06T11:30:59.435Z,174.38
2022-10-06T11:31:59.531Z,168.75
2022-10-06T11:32:59.409Z,174.38
2022-10-06T11:33:59.398Z,174.38
2022-10-06T11:34:59.394Z,174.38
2022-10-06T11:35:59.468Z,174.38
2022-10-06T11:36:59.366Z,174.38
2022-10-06T11:37:59.359Z,168.75
2022-10-06T11:38:59.338Z,157.50
2022-10-06T11:39:59.704Z,174.38
2022-10-06T11:40:59.314Z,174.38
2022-10-06T11:41:59.434Z,151.88
2022-10-06T11:42:59.329Z,151.88
2022-10-06T11:43:59.282Z,163.12
2022-10-06T11:44:59.557Z,157.50
2022-10-06T11:45:59.361Z,180.00
2022-10-06T11:46:59.329Z,180.00
2022-10-06T11:47:59.257Z,191.25
2022-10-06T11:48:59.244Z,196.88
2022-10-06T11:49:59.266Z,196.88
2022-10-06T11:50:59.215Z,208.12
2022-10-06T11:52:01.626Z,213.75
2022-10-06T11:52:59.184Z,213.75
2022-10-06T11:53:59.190Z,219.38
2022-10-06T11:54:59.559Z,230.62
2022-10-06T11:55:59.155Z,225.00
2022-10-06T11:56:59.154Z,213.75
2022-10-06T11:57:59.139Z,196.88
2022-10-06T11:58:59.125Z,202.50
2022-10-06T11:59:59.124Z,213.75
2022-10-06T12:00:59.135Z,230.62
2022-10-06T12:01:59.253Z,253.12
2022-10-06T12:02:59.227Z,258.75
2022-10-06T12:03:59.107Z,270.00
2022-10-06T12:04:59.353Z,253.12
2022-10-06T12:05:59.054Z,219.38
2022-10-06T12:06:59.104Z,208.12
2022-10-06T12:07:59.046Z,185.62
2022-10-06T12:08:59.054Z,202.50
2022-10-06T12:09:59.009Z,225.00
2022-10-06T12:10:59.014Z,264.38
2022-10-06T12:11:58.991Z,275.62
2022-10-06T12:13:08.094Z,264.38
2022-10-06T12:17:19.317Z,202.50
2022-10-06T12:17:59.949Z,180.00
2022-10-06T12:18:58.934Z,174.38
2022-10-06T12:19:58.914Z,202.50
2022-10-06T12:20:58.913Z,208.12
2022-10-06T12:21:58.964Z,185.62
2022-10-06T12:22:58.876Z,174.38
2022-10-06T12:23:58.882Z,174.38
2022-10-06T12:24:59.249Z,163.12
2022-10-06T12:25:58.946Z,174.38
2022-10-06T12:26:58.827Z,202.50
2022-10-06T12:27:58.904Z,219.38
2022-10-06T12:28:58.822Z,241.88
2022-10-06T12:29:59.183Z,247.50
2022-10-06T12:30:58.936Z,258.75
2022-10-06T12:31:58.805Z,292.50
2022-10-06T12:32:58.811Z,292.50
2022-10-06T12:33:58.748Z,241.88
2022-10-06T12:34:59.101Z,213.75
2022-10-06T12:35:58.744Z,180.00
2022-10-06T12:38:09.539Z,185.62
2022-10-06T12:39:09.611Z,180.00
2022-10-06T12:40:09.663Z,185.62
2022-10-06T12:41:09.484Z,174.38
2022-10-06T12:42:09.446Z,174.38
2022-10-06T12:43:09.417Z,157.50
2022-10-06T12:44:09.480Z,168.75
2022-10-06T12:45:09.386Z,168.75
2022-10-06T12:46:09.434Z,168.75
2022-10-06T12:47:09.392Z,163.12
2022-10-06T12:48:09.356Z,163.12
2022-10-06T12:49:09.416Z,163.12
2022-10-06T12:50:09.360Z,157.50
2022-10-06T12:51:09.316Z,163.12
2022-10-06T12:52:09.371Z,163.12
2022-10-06T12:53:09.309Z,163.12
2022-10-06T12:54:09.295Z,163.12
2022-10-06T12:55:09.304Z,163.12
2022-10-06T12:56:09.293Z,163.12
2022-10-06T12:57:09.271Z,151.88
2022-10-06T12:58:09.253Z,157.50
2022-10-06T12:59:09.246Z,157.50
2022-10-06T13:00:09.244Z,163.12
2022-10-06T13:01:09.278Z,163.12
2022-10-06T13:02:09.332Z,163.12
2022-10-06T13:03:09.206Z,163.12
2022-10-06T13:04:09.201Z,163.12
2022-10-06T13:05:09.235Z,168.75
2022-10-06T13:06:09.156Z,168.75
2022-10-06T13:07:09.230Z,180.00
2022-10-06T13:08:09.152Z,180.00
2022-10-06T13:09:09.181Z,180.00